createdAt,value
2018-04-02T00:06:46.213Z,85.18
2018-04-02T00:27:21.484Z,85.64
2018-04-02T00:47:57.675Z,86.95
2018-04-02T01:08:33.565Z,86.56
2018-04-02T01:29:07.301Z,86.34
2018-04-02T01:49:42.801Z,86.82
2018-04-02T02:10:16.611Z,88.28
2018-04-02T02:30:51.086Z,88.29
2018-04-02T02:51:26.465Z,87.84
2018-04-02T03:12:00.894Z,87.98
2018-04-02T03:32:35.555Z,88.64
2018-04-02T03:53:12.671Z,88.52
2018-04-02T04:13:47.021Z,89.52
2018-04-02T04:34:20.223Z,89.13
2018-04-02T04:54:57.687Z,88.81
2018-04-02T05:15:36.135Z,89.62
2018-04-02T05:36:10.170Z,89.09
2018-04-02T05:56:43.072Z,89.33
2018-04-02T06:17:22.336Z,88.71
2018-04-02T06:37:57.650Z,87.20
2018-04-02T06:58:29.805Z,86.85
2018-04-02T07:19:05.078Z,86.09
2018-04-02T07:39:40.549Z,85.12
2018-04-02T08:00:13.470Z,83.50
2018-04-02T08:20:48.748Z,79.85
2018-04-02T08:41:21.870Z,75.23
2018-04-02T09:01:58.069Z,65.32
2018-04-02T09:22:31.656Z,64.54
2018-04-02T09:43:04.613Z,62.14
2018-04-02T10:03:43.120Z,55.38
2018-04-02T10:24:16.081Z,54.08
2018-04-02T10:44:51.351Z,52.83
2018-04-02T11:05:26.792Z,53.22
2018-04-02T11:26:02.813Z,51.21
2018-04-02T11:46:37.783Z,52.04
2018-04-02T12:07:14.285Z,48.63
2018-04-02T12:27:47.401Z,46.41
2018-04-02T12:48:19.607Z,45.72
2018-04-02T13:08:54.881Z,43.45
2018-04-02T13:29:34.149Z,43.28
2018-04-02T13:50:08.189Z,43.94
2018-04-02T14:10:38.548Z,44.81
2018-04-02T14:31:13.821Z,42.60
2018-04-02T14:51:58.314Z,41.59
2018-04-02T15:12:32.352Z,43.23
2018-04-02T15:33:04.552Z,44.98
2018-04-02T15:53:40.747Z,42.98
2018-04-02T16:14:12.946Z,41.97
2018-04-02T16:52:48.142Z,42.46
2018-04-02T17:13:20.247Z,43.93
2018-04-02T17:33:53.365Z,47.01
2018-04-02T17:54:26.491Z,44.65
2018-04-02T18:15:01.998Z,51.23
2018-04-02T18:35:34.267Z,53.71
2018-04-02T18:56:09.264Z,54.33
2018-04-02T19:16:44.214Z,57.79
2018-04-02T19:37:15.481Z,59.56
2018-04-02T19:57:49.832Z,60.37
2018-04-02T20:18:26.025Z,62.43
2018-04-02T20:39:01.306Z,64.26
2018-04-02T20:59:33.499Z,63.93
2018-04-02T21:20:09.754Z,64.20
2018-04-02T21:40:44.962Z,66.53
2018-04-02T22:01:20.236Z,67.40
2018-04-02T22:21:54.843Z,68.23
2018-04-02T22:42:28.631Z,70.88
2018-04-02T23:03:03.896Z,73.99
2018-04-02T23:23:39.330Z,80.44
2018-04-02T23:44:13.218Z,83.68
